UAL1982 KIAH-KRSW
Flight info
| Callsign | UAL1982 |
|---|---|
| Flight time | 1h 39m |
| Altitude | 35000 |
| Route | GUMBY3 LLA LEV Y290 BLVNS KOLBR TYNEE4 |
| Aircraft | B738/M-SDE2E3FGHIRWXY/LB1 |
Departure
| Time | 2026-05-05 00:04 |
|---|---|
| Airport | George Bush Intercontinental Airport (KIAH) |
Arrival
| Time | 2026-05-05 01:43 |
|---|---|
| Airport | Southwest Florida International Airport (KRSW) |
| Time | Latitude | Longitude | Altitude | Speed | Heading |
|---|---|---|---|---|---|
| 2026-05-04 23:47 | 29.98392 | -95.33878 | 100 ft | 0 kts | 32° |
| 2026-05-04 23:54 | 29.98389 | -95.33879 | 100 ft | 3 kts | 32° |
| 2026-05-04 23:54 | 29.98373 | -95.33891 | 98 ft | 3 kts | 32° |
| 2026-05-04 23:55 | 29.98357 | -95.33902 | 99 ft | 3 kts | 32° |
| 2026-05-04 23:55 | 29.98340 | -95.33908 | 98 ft | 3 kts | 336° |
| 2026-05-04 23:55 | 29.98328 | -95.33891 | 97 ft | 0 kts | 262° |
| 2026-05-05 00:00 | 29.98323 | -95.33930 | 100 ft | 11 kts | 261° |
| 2026-05-05 00:01 | 29.98324 | -95.34030 | 99 ft | 17 kts | 258° |
| 2026-05-05 00:01 | 29.98305 | -95.34187 | 99 ft | 22 kts | 270° |
| 2026-05-05 00:01 | 29.98302 | -95.34375 | 99 ft | 25 kts | 259° |
| 2026-05-05 00:01 | 29.98258 | -95.34558 | 99 ft | 24 kts | 271° |
| 2026-05-05 00:02 | 29.98258 | -95.34761 | 101 ft | 26 kts | 268° |
| 2026-05-05 00:02 | 29.98259 | -95.34958 | 100 ft | 24 kts | 271° |
| 2026-05-05 00:02 | 29.98284 | -95.35136 | 99 ft | 24 kts | 320° |
| 2026-05-05 00:02 | 29.98460 | -95.35248 | 100 ft | 34 kts | 332° |
| 2026-05-05 00:03 | 29.98675 | -95.35381 | 100 ft | 35 kts | 332° |
| 2026-05-05 00:03 | 29.98864 | -95.35505 | 98 ft | 24 kts | 308° |
| 2026-05-05 00:03 | 29.98824 | -95.35681 | 100 ft | 26 kts | 244° |
| 2026-05-05 00:03 | 29.98630 | -95.35691 | 102 ft | 61 kts | 152° |
| 2026-05-05 00:04 | 29.97979 | -95.35291 | 100 ft | 147 kts | 152° |
| 2026-05-05 00:04 | 29.96931 | -95.34629 | 602 ft | 184 kts | 150° |
| 2026-05-05 00:04 | 29.96160 | -95.34123 | 1102 ft | 199 kts | 153° |
| 2026-05-05 00:04 | 29.95014 | -95.33167 | 2092 ft | 207 kts | 135° |
| 2026-05-05 00:05 | 29.94327 | -95.31651 | 2820 ft | 227 kts | 111° |
| 2026-05-05 00:05 | 29.94021 | -95.29774 | 3313 ft | 247 kts | 98° |
| 2026-05-05 00:05 | 29.93964 | -95.27072 | 3906 ft | 255 kts | 94° |
| 2026-05-05 00:05 | 29.93882 | -95.25725 | 3908 ft | 254 kts | 102° |
| 2026-05-05 00:06 | 29.93639 | -95.23694 | 3922 ft | 262 kts | 94° |
| 2026-05-05 00:06 | 29.93694 | -95.21523 | 3931 ft | 276 kts | 90° |
| 2026-05-05 00:06 | 29.93766 | -95.19300 | 3952 ft | 279 kts | 91° |
| 2026-05-05 00:06 | 29.93814 | -95.17069 | 3946 ft | 278 kts | 91° |
| 2026-05-05 00:07 | 29.93850 | -95.14849 | 3931 ft | 277 kts | 92° |
| 2026-05-05 00:07 | 29.93883 | -95.12633 | 3947 ft | 276 kts | 92° |
| 2026-05-05 00:07 | 29.93914 | -95.10413 | 4049 ft | 278 kts | 92° |
| 2026-05-05 00:07 | 29.93937 | -95.08162 | 4663 ft | 280 kts | 94° |
| 2026-05-05 00:08 | 29.93547 | -95.05937 | 5287 ft | 284 kts | 111° |
| 2026-05-05 00:08 | 29.92894 | -95.03791 | 6020 ft | 292 kts | 111° |
| 2026-05-05 00:08 | 29.92196 | -95.01526 | 6663 ft | 300 kts | 111° |
| 2026-05-05 00:08 | 29.91510 | -94.99283 | 7444 ft | 301 kts | 110° |
| 2026-05-05 00:09 | 29.90816 | -94.96990 | 8155 ft | 305 kts | 109° |
| 2026-05-05 00:09 | 29.90115 | -94.94660 | 8898 ft | 308 kts | 110° |
| 2026-05-05 00:09 | 29.89416 | -94.92320 | 9688 ft | 311 kts | 109° |
| 2026-05-05 00:09 | 29.88708 | -94.89945 | 10322 ft | 318 kts | 109° |
| 2026-05-05 00:10 | 29.87963 | -94.87439 | 10505 ft | 342 kts | 109° |
| 2026-05-05 00:10 | 29.87169 | -94.84762 | 10716 ft | 362 kts | 109° |
| 2026-05-05 00:10 | 29.86340 | -94.81971 | 11212 ft | 371 kts | 109° |
| 2026-05-05 00:10 | 29.85500 | -94.79140 | 11845 ft | 376 kts | 108° |
| 2026-05-05 00:11 | 29.84648 | -94.76273 | 12490 ft | 380 kts | 108° |
| 2026-05-05 00:11 | 29.83788 | -94.73378 | 13122 ft | 385 kts | 108° |
| 2026-05-05 00:11 | 29.82914 | -94.70441 | 13739 ft | 390 kts | 108° |
| 2026-05-05 00:11 | 29.82029 | -94.67469 | 14269 ft | 395 kts | 108° |
| 2026-05-05 00:12 | 29.81133 | -94.64460 | 14795 ft | 400 kts | 108° |
| 2026-05-05 00:12 | 29.80224 | -94.61413 | 15326 ft | 405 kts | 108° |
| 2026-05-05 00:12 | 29.79317 | -94.58378 | 15847 ft | 409 kts | 108° |
| 2026-05-05 00:12 | 29.78386 | -94.55262 | 16384 ft | 414 kts | 108° |
| 2026-05-05 00:13 | 29.77444 | -94.52113 | 16896 ft | 418 kts | 108° |
| 2026-05-05 00:13 | 29.76490 | -94.48928 | 17409 ft | 423 kts | 108° |
| 2026-05-05 00:13 | 29.75523 | -94.45703 | 17912 ft | 428 kts | 108° |
| 2026-05-05 00:13 | 29.74548 | -94.42450 | 18375 ft | 432 kts | 108° |
| 2026-05-05 00:14 | 29.73560 | -94.39160 | 18794 ft | 437 kts | 108° |
| 2026-05-05 00:14 | 29.72563 | -94.35846 | 19199 ft | 441 kts | 108° |
| 2026-05-05 00:14 | 29.71711 | -94.32439 | 19612 ft | 444 kts | 98° |
| 2026-05-05 00:14 | 29.71279 | -94.28922 | 20042 ft | 446 kts | 94° |
| 2026-05-05 00:15 | 29.70954 | -94.25360 | 20483 ft | 449 kts | 93° |
| 2026-05-05 00:15 | 29.70633 | -94.21779 | 20900 ft | 453 kts | 93° |
| 2026-05-05 00:15 | 29.70277 | -94.18152 | 21313 ft | 458 kts | 93° |
| 2026-05-05 00:15 | 29.69890 | -94.14538 | 21690 ft | 462 kts | 94° |
| 2026-05-05 00:16 | 29.69477 | -94.10855 | 22081 ft | 467 kts | 94° |
| 2026-05-05 00:16 | 29.69054 | -94.07140 | 22477 ft | 471 kts | 94° |
| 2026-05-05 00:16 | 29.68636 | -94.03394 | 22863 ft | 474 kts | 92° |
| 2026-05-05 00:16 | 29.68420 | -93.99752 | 23221 ft | 475 kts | 87° |
| 2026-05-05 00:17 | 29.68371 | -93.95943 | 23596 ft | 477 kts | 85° |
| 2026-05-05 00:17 | 29.68396 | -93.92110 | 23917 ft | 480 kts | 84° |
| 2026-05-05 00:17 | 29.68433 | -93.88263 | 24248 ft | 483 kts | 84° |
| 2026-05-05 00:17 | 29.68456 | -93.84392 | 24585 ft | 485 kts | 84° |
| 2026-05-05 00:18 | 29.68457 | -93.80496 | 24934 ft | 488 kts | 85° |
| 2026-05-05 00:18 | 29.68438 | -93.76579 | 25224 ft | 492 kts | 85° |
| 2026-05-05 00:18 | 29.68405 | -93.72628 | 25521 ft | 496 kts | 85° |
| 2026-05-05 00:18 | 29.68364 | -93.68656 | 25842 ft | 498 kts | 85° |
| 2026-05-05 00:19 | 29.68317 | -93.64653 | 26163 ft | 500 kts | 85° |
| 2026-05-05 00:19 | 29.68270 | -93.60644 | 26474 ft | 503 kts | 85° |
| 2026-05-05 00:19 | 29.68222 | -93.56614 | 26773 ft | 506 kts | 85° |
| 2026-05-05 00:19 | 29.68174 | -93.52617 | 27061 ft | 508 kts | 85° |
| 2026-05-05 00:20 | 29.68125 | -93.48536 | 27364 ft | 511 kts | 85° |
| 2026-05-05 00:20 | 29.68075 | -93.44435 | 27651 ft | 513 kts | 85° |
| 2026-05-05 00:20 | 29.68024 | -93.40320 | 27933 ft | 516 kts | 85° |
| 2026-05-05 00:20 | 29.67971 | -93.36191 | 28209 ft | 518 kts | 85° |
| 2026-05-05 00:21 | 29.67917 | -93.32043 | 28477 ft | 521 kts | 85° |
| 2026-05-05 00:21 | 29.67861 | -93.27866 | 28746 ft | 523 kts | 85° |
| 2026-05-05 00:21 | 29.67804 | -93.23677 | 28998 ft | 525 kts | 85° |
| 2026-05-05 00:21 | 29.67745 | -93.19468 | 29263 ft | 528 kts | 85° |
| 2026-05-05 00:22 | 29.67684 | -93.15242 | 29514 ft | 530 kts | 85° |
| 2026-05-05 00:22 | 29.67621 | -93.10999 | 29769 ft | 532 kts | 85° |
| 2026-05-05 00:22 | 29.67557 | -93.06740 | 30093 ft | 532 kts | 85° |
| 2026-05-05 00:22 | 29.67490 | -93.02486 | 30440 ft | 531 kts | 85° |
| 2026-05-05 00:23 | 29.67424 | -92.98385 | 30778 ft | 530 kts | 85° |
| 2026-05-05 00:23 | 29.67356 | -92.94153 | 31085 ft | 529 kts | 85° |
| 2026-05-05 00:23 | 29.67287 | -92.89919 | 31364 ft | 530 kts | 85° |
| 2026-05-05 00:23 | 29.67217 | -92.85680 | 31661 ft | 530 kts | 85° |
| 2026-05-05 00:24 | 29.67146 | -92.81451 | 31980 ft | 529 kts | 85° |
| 2026-05-05 00:24 | 29.67073 | -92.77220 | 32299 ft | 528 kts | 85° |
| 2026-05-05 00:24 | 29.66999 | -92.72993 | 32583 ft | 528 kts | 85° |
| 2026-05-05 00:24 | 29.66924 | -92.68767 | 32860 ft | 528 kts | 85° |
| 2026-05-05 00:25 | 29.66847 | -92.64546 | 33174 ft | 528 kts | 84° |
| 2026-05-05 00:25 | 29.66771 | -92.60378 | 33427 ft | 529 kts | 84° |
| 2026-05-05 00:25 | 29.66691 | -92.56150 | 33708 ft | 529 kts | 84° |
| 2026-05-05 00:25 | 29.66611 | -92.51929 | 34006 ft | 528 kts | 84° |
| 2026-05-05 00:26 | 29.66528 | -92.47722 | 34318 ft | 526 kts | 84° |
| 2026-05-05 00:26 | 29.66445 | -92.43522 | 34681 ft | 522 kts | 84° |
| 2026-05-05 00:26 | 29.66361 | -92.39360 | 34988 ft | 520 kts | 85° |
| 2026-05-05 00:26 | 29.66096 | -92.35181 | 34973 ft | 532 kts | 95° |
| 2026-05-05 00:27 | 29.65358 | -92.30999 | 35042 ft | 537 kts | 99° |
| 2026-05-05 00:27 | 29.63478 | -92.22580 | 35023 ft | 548 kts | 101° |
| 2026-05-05 00:28 | 29.61533 | -92.14029 | 35016 ft | 555 kts | 100° |
| 2026-05-05 00:28 | 29.59676 | -92.05364 | 35017 ft | 562 kts | 99° |
| 2026-05-05 00:29 | 29.57889 | -91.96760 | 35015 ft | 567 kts | 99° |
| 2026-05-05 00:29 | 29.56066 | -91.87978 | 35007 ft | 569 kts | 99° |
| 2026-05-05 00:30 | 29.54209 | -91.79118 | 35012 ft | 571 kts | 99° |
| 2026-05-05 00:30 | 29.52341 | -91.70257 | 34990 ft | 570 kts | 100° |
| 2026-05-05 00:31 | 29.50471 | -91.61427 | 35015 ft | 569 kts | 100° |
| 2026-05-05 00:31 | 29.48601 | -91.52620 | 35031 ft | 567 kts | 99° |
| 2026-05-05 00:32 | 29.46729 | -91.43830 | 35019 ft | 566 kts | 99° |
| 2026-05-05 00:32 | 29.44868 | -91.35117 | 35022 ft | 565 kts | 99° |
| 2026-05-05 00:33 | 29.42988 | -91.26348 | 35022 ft | 564 kts | 100° |
| 2026-05-05 00:33 | 29.41108 | -91.17610 | 35025 ft | 564 kts | 100° |
| 2026-05-05 00:34 | 29.39222 | -91.08874 | 35023 ft | 564 kts | 99° |
| 2026-05-05 00:34 | 29.37330 | -91.00141 | 35027 ft | 565 kts | 99° |
| 2026-05-05 00:35 | 29.35466 | -90.91560 | 35020 ft | 565 kts | 99° |
| 2026-05-05 00:35 | 29.33559 | -90.82818 | 35020 ft | 565 kts | 100° |
| 2026-05-05 00:36 | 29.31659 | -90.74134 | 35024 ft | 566 kts | 99° |
| 2026-05-05 00:36 | 29.29739 | -90.65389 | 35031 ft | 566 kts | 100° |
| 2026-05-05 00:37 | 29.27815 | -90.56655 | 35024 ft | 566 kts | 100° |
| 2026-05-05 00:37 | 29.25882 | -90.47909 | 35030 ft | 566 kts | 100° |
| 2026-05-05 00:38 | 29.23946 | -90.39174 | 35028 ft | 565 kts | 100° |
| 2026-05-05 00:38 | 29.22008 | -90.30466 | 35032 ft | 565 kts | 100° |
| 2026-05-05 00:39 | 29.20065 | -90.21756 | 35035 ft | 564 kts | 100° |
| 2026-05-05 00:39 | 29.18131 | -90.13111 | 35033 ft | 564 kts | 100° |
| 2026-05-05 00:40 | 29.15592 | -90.04589 | 35045 ft | 568 kts | 110° |
| 2026-05-05 00:40 | 29.12462 | -89.96460 | 35037 ft | 569 kts | 112° |
| 2026-05-05 00:41 | 29.09231 | -89.88175 | 35014 ft | 569 kts | 111° |
| 2026-05-05 00:41 | 29.06079 | -89.79886 | 35015 ft | 569 kts | 111° |
| 2026-05-05 00:42 | 29.02958 | -89.71568 | 35031 ft | 569 kts | 110° |
| 2026-05-05 00:42 | 28.99860 | -89.63320 | 35020 ft | 569 kts | 111° |
| 2026-05-05 00:43 | 28.96726 | -89.55013 | 35031 ft | 569 kts | 111° |
| 2026-05-05 00:43 | 28.93584 | -89.46716 | 35024 ft | 568 kts | 111° |
| 2026-05-05 00:44 | 28.90443 | -89.38439 | 35026 ft | 568 kts | 111° |
| 2026-05-05 00:44 | 28.87299 | -89.30172 | 35031 ft | 567 kts | 111° |
| 2026-05-05 00:45 | 28.84173 | -89.21972 | 35044 ft | 567 kts | 111° |
| 2026-05-05 00:45 | 28.81021 | -89.13718 | 35033 ft | 567 kts | 111° |
| 2026-05-05 00:46 | 28.77863 | -89.05468 | 35034 ft | 567 kts | 111° |
| 2026-05-05 00:46 | 28.74755 | -88.97368 | 35032 ft | 567 kts | 111° |
| 2026-05-05 00:47 | 28.71588 | -88.89130 | 35033 ft | 567 kts | 111° |
| 2026-05-05 00:47 | 28.68416 | -88.80899 | 35038 ft | 567 kts | 111° |
| 2026-05-05 00:48 | 28.65240 | -88.72673 | 35009 ft | 567 kts | 111° |
| 2026-05-05 00:48 | 28.62063 | -88.64463 | 35030 ft | 566 kts | 111° |
| 2026-05-05 00:49 | 28.58902 | -88.56312 | 35035 ft | 566 kts | 111° |
| 2026-05-05 00:49 | 28.55715 | -88.48113 | 35038 ft | 565 kts | 111° |
| 2026-05-05 00:50 | 28.52533 | -88.39942 | 35041 ft | 566 kts | 111° |
| 2026-05-05 00:50 | 28.49339 | -88.31757 | 35035 ft | 566 kts | 111° |
| 2026-05-05 00:51 | 28.46680 | -88.24958 | 35035 ft | 566 kts | 111° |
| 2026-05-05 00:51 | 28.42956 | -88.15455 | 35036 ft | 566 kts | 111° |
| 2026-05-05 00:52 | 28.40284 | -88.08647 | 35042 ft | 566 kts | 111° |
| 2026-05-05 00:52 | 28.37098 | -88.00479 | 35037 ft | 565 kts | 110° |
| 2026-05-05 00:53 | 28.34190 | -87.92342 | 35021 ft | 564 kts | 109° |
| 2026-05-05 00:53 | 28.31325 | -87.84059 | 35027 ft | 563 kts | 109° |
| 2026-05-05 00:54 | 28.28433 | -87.75806 | 35038 ft | 563 kts | 109° |
| 2026-05-05 00:54 | 28.25501 | -87.67567 | 35044 ft | 563 kts | 109° |
| 2026-05-05 00:55 | 28.22555 | -87.59339 | 35033 ft | 563 kts | 109° |
| 2026-05-05 00:55 | 28.19607 | -87.51116 | 35035 ft | 563 kts | 109° |
| 2026-05-05 00:56 | 28.16653 | -87.42889 | 35033 ft | 563 kts | 109° |
| 2026-05-05 00:56 | 28.13699 | -87.34672 | 35036 ft | 563 kts | 109° |
| 2026-05-05 00:57 | 28.10759 | -87.26514 | 35039 ft | 563 kts | 109° |
| 2026-05-05 00:57 | 28.07794 | -87.18305 | 35035 ft | 563 kts | 109° |
| 2026-05-05 00:58 | 28.04818 | -87.10086 | 35036 ft | 563 kts | 109° |
| 2026-05-05 00:58 | 28.01847 | -87.01898 | 35023 ft | 562 kts | 110° |
| 2026-05-05 00:59 | 27.98957 | -86.93951 | 35044 ft | 561 kts | 110° |
| 2026-05-05 00:59 | 27.95980 | -86.85781 | 35031 ft | 561 kts | 110° |
| 2026-05-05 01:00 | 27.92999 | -86.77616 | 35029 ft | 561 kts | 110° |
| 2026-05-05 01:00 | 27.90017 | -86.69470 | 35034 ft | 561 kts | 110° |
| 2026-05-05 01:01 | 27.87030 | -86.61326 | 35029 ft | 561 kts | 110° |
| 2026-05-05 01:01 | 27.84034 | -86.53173 | 35035 ft | 561 kts | 110° |
| 2026-05-05 01:02 | 27.81034 | -86.45028 | 35027 ft | 562 kts | 110° |
| 2026-05-05 01:02 | 27.78045 | -86.36933 | 35028 ft | 562 kts | 110° |
| 2026-05-05 01:03 | 27.75015 | -86.28740 | 35027 ft | 562 kts | 110° |
| 2026-05-05 01:03 | 27.72019 | -86.20660 | 35027 ft | 562 kts | 110° |
| 2026-05-05 01:04 | 27.68999 | -86.12528 | 35035 ft | 562 kts | 110° |
| 2026-05-05 01:04 | 27.64455 | -86.00330 | 35024 ft | 562 kts | 110° |
| 2026-05-05 01:05 | 27.61468 | -85.92333 | 35025 ft | 562 kts | 110° |
| 2026-05-05 01:05 | 27.58427 | -85.84207 | 35027 ft | 562 kts | 110° |
| 2026-05-05 01:06 | 27.55381 | -85.76085 | 35027 ft | 562 kts | 110° |
| 2026-05-05 01:06 | 27.52332 | -85.67970 | 35028 ft | 562 kts | 110° |
| 2026-05-05 01:07 | 27.49277 | -85.59859 | 35027 ft | 562 kts | 110° |
| 2026-05-05 01:07 | 27.46216 | -85.51745 | 35027 ft | 562 kts | 110° |
| 2026-05-05 01:08 | 27.43171 | -85.43689 | 35027 ft | 562 kts | 110° |
| 2026-05-05 01:08 | 27.40521 | -85.35460 | 35000 ft | 553 kts | 92° |
| 2026-05-05 01:09 | 27.39967 | -85.26913 | 35024 ft | 547 kts | 87° |
| 2026-05-05 01:09 | 27.39478 | -85.18360 | 35032 ft | 548 kts | 88° |
| 2026-05-05 01:10 | 27.38883 | -85.09790 | 35025 ft | 549 kts | 89° |
| 2026-05-05 01:10 | 27.38243 | -85.01236 | 35031 ft | 548 kts | 89° |
| 2026-05-05 01:11 | 27.37612 | -84.92813 | 35022 ft | 548 kts | 89° |
| 2026-05-05 01:11 | 27.36973 | -84.84259 | 35025 ft | 548 kts | 89° |
| 2026-05-05 01:12 | 27.36336 | -84.75765 | 35024 ft | 548 kts | 89° |
| 2026-05-05 01:12 | 27.35681 | -84.67223 | 35025 ft | 548 kts | 90° |
| 2026-05-05 01:13 | 27.34919 | -84.58673 | 35028 ft | 549 kts | 91° |
| 2026-05-05 01:13 | 27.34112 | -84.50115 | 35014 ft | 544 kts | 91° |
| 2026-05-05 01:14 | 27.33715 | -84.45940 | 34999 ft | 529 kts | 90° |
| 2026-05-05 01:14 | 27.33336 | -84.41936 | 34999 ft | 514 kts | 90° |
| 2026-05-05 01:14 | 27.32965 | -84.37971 | 34793 ft | 507 kts | 90° |
| 2026-05-05 01:14 | 27.32603 | -84.34050 | 34479 ft | 502 kts | 90° |
| 2026-05-05 01:15 | 27.32246 | -84.30151 | 34117 ft | 499 kts | 90° |
| 2026-05-05 01:15 | 27.31891 | -84.26279 | 33739 ft | 497 kts | 90° |
| 2026-05-05 01:15 | 27.31535 | -84.22422 | 33327 ft | 494 kts | 90° |
| 2026-05-05 01:15 | 27.31179 | -84.18595 | 32932 ft | 491 kts | 90° |
| 2026-05-05 01:16 | 27.30823 | -84.14792 | 32557 ft | 488 kts | 90° |
| 2026-05-05 01:16 | 27.30467 | -84.11012 | 32180 ft | 485 kts | 90° |
| 2026-05-05 01:16 | 27.30112 | -84.07244 | 31814 ft | 482 kts | 90° |
| 2026-05-05 01:16 | 27.29759 | -84.03513 | 31454 ft | 479 kts | 90° |
| 2026-05-05 01:17 | 27.29413 | -83.99868 | 31099 ft | 477 kts | 90° |
| 2026-05-05 01:17 | 27.29066 | -83.96223 | 30744 ft | 474 kts | 90° |
| 2026-05-05 01:17 | 27.28714 | -83.92540 | 30387 ft | 472 kts | 90° |
| 2026-05-05 01:17 | 27.28365 | -83.88886 | 30028 ft | 470 kts | 91° |
| 2026-05-05 01:18 | 27.28016 | -83.85242 | 29592 ft | 467 kts | 91° |
| 2026-05-05 01:18 | 27.27668 | -83.81623 | 29199 ft | 464 kts | 91° |
| 2026-05-05 01:18 | 27.27320 | -83.78025 | 28794 ft | 461 kts | 91° |
| 2026-05-05 01:18 | 27.26975 | -83.74457 | 28426 ft | 457 kts | 92° |
| 2026-05-05 01:19 | 27.26632 | -83.70920 | 28058 ft | 454 kts | 92° |
| 2026-05-05 01:19 | 27.26290 | -83.67403 | 27692 ft | 451 kts | 92° |
| 2026-05-05 01:19 | 27.25950 | -83.63912 | 27328 ft | 448 kts | 92° |
| 2026-05-05 01:19 | 27.25610 | -83.60433 | 26966 ft | 445 kts | 92° |
| 2026-05-05 01:20 | 27.25273 | -83.56989 | 26606 ft | 443 kts | 93° |
| 2026-05-05 01:20 | 27.24941 | -83.53603 | 26252 ft | 440 kts | 93° |
| 2026-05-05 01:20 | 27.24601 | -83.50149 | 25895 ft | 438 kts | 94° |
| 2026-05-05 01:20 | 27.24266 | -83.46756 | 25536 ft | 436 kts | 94° |
| 2026-05-05 01:21 | 27.23936 | -83.43420 | 25181 ft | 434 kts | 94° |
| 2026-05-05 01:21 | 27.23603 | -83.40057 | 24818 ft | 432 kts | 94° |
| 2026-05-05 01:21 | 27.23270 | -83.36705 | 24461 ft | 431 kts | 95° |
| 2026-05-05 01:21 | 27.22846 | -83.33380 | 24173 ft | 428 kts | 99° |
| 2026-05-05 01:22 | 27.22262 | -83.30128 | 23953 ft | 422 kts | 102° |
| 2026-05-05 01:22 | 27.21623 | -83.26927 | 23724 ft | 417 kts | 102° |
| 2026-05-05 01:22 | 27.20985 | -83.23771 | 23454 ft | 413 kts | 102° |
| 2026-05-05 01:22 | 27.20359 | -83.20623 | 23090 ft | 411 kts | 102° |
| 2026-05-05 01:23 | 27.19751 | -83.17498 | 22739 ft | 408 kts | 102° |
| 2026-05-05 01:23 | 27.19156 | -83.14383 | 22390 ft | 406 kts | 102° |
| 2026-05-05 01:23 | 27.18570 | -83.11286 | 22041 ft | 404 kts | 102° |
| 2026-05-05 01:23 | 27.17990 | -83.08209 | 21694 ft | 402 kts | 102° |
| 2026-05-05 01:24 | 27.17415 | -83.05155 | 21352 ft | 399 kts | 102° |
| 2026-05-05 01:24 | 27.16840 | -83.02106 | 21002 ft | 397 kts | 102° |
| 2026-05-05 01:24 | 27.16294 | -82.99214 | 20674 ft | 396 kts | 102° |
| 2026-05-05 01:24 | 27.15730 | -82.96236 | 20335 ft | 394 kts | 102° |
| 2026-05-05 01:25 | 27.15161 | -82.93231 | 19994 ft | 392 kts | 102° |
| 2026-05-05 01:25 | 27.14594 | -82.90242 | 19655 ft | 390 kts | 102° |
| 2026-05-05 01:25 | 27.14028 | -82.87266 | 19318 ft | 388 kts | 102° |
| 2026-05-05 01:25 | 27.13401 | -82.84327 | 18959 ft | 386 kts | 111° |
| 2026-05-05 01:26 | 27.12128 | -82.81732 | 18787 ft | 375 kts | 127° |
| 2026-05-05 01:26 | 27.10655 | -82.79321 | 18459 ft | 373 kts | 127° |
| 2026-05-05 01:26 | 27.09200 | -82.76959 | 18138 ft | 371 kts | 127° |
| 2026-05-05 01:26 | 27.07739 | -82.74581 | 17773 ft | 369 kts | 127° |
| 2026-05-05 01:27 | 27.06290 | -82.72210 | 17422 ft | 367 kts | 127° |
| 2026-05-05 01:27 | 27.04856 | -82.69849 | 17078 ft | 365 kts | 127° |
| 2026-05-05 01:27 | 27.03431 | -82.67498 | 16740 ft | 363 kts | 127° |
| 2026-05-05 01:27 | 27.02018 | -82.65161 | 16407 ft | 361 kts | 127° |
| 2026-05-05 01:28 | 27.00615 | -82.62839 | 16075 ft | 359 kts | 127° |
| 2026-05-05 01:28 | 26.99219 | -82.60530 | 15746 ft | 357 kts | 127° |
| 2026-05-05 01:28 | 26.97827 | -82.58228 | 15424 ft | 355 kts | 127° |
| 2026-05-05 01:28 | 26.96445 | -82.55941 | 15083 ft | 354 kts | 127° |
| 2026-05-05 01:29 | 26.95064 | -82.53660 | 14757 ft | 352 kts | 127° |
| 2026-05-05 01:29 | 26.93694 | -82.51396 | 14435 ft | 351 kts | 127° |
| 2026-05-05 01:29 | 26.92324 | -82.49134 | 14114 ft | 350 kts | 127° |
| 2026-05-05 01:29 | 26.90958 | -82.46882 | 13779 ft | 349 kts | 127° |
| 2026-05-05 01:30 | 26.89617 | -82.44669 | 13428 ft | 347 kts | 127° |
| 2026-05-05 01:30 | 26.88264 | -82.42438 | 13085 ft | 345 kts | 127° |
| 2026-05-05 01:30 | 26.86921 | -82.40224 | 12760 ft | 342 kts | 127° |
| 2026-05-05 01:30 | 26.85587 | -82.38027 | 12477 ft | 338 kts | 127° |
| 2026-05-05 01:31 | 26.84286 | -82.35882 | 12275 ft | 329 kts | 127° |
| 2026-05-05 01:31 | 26.83018 | -82.33794 | 11992 ft | 318 kts | 127° |
| 2026-05-05 01:31 | 26.81795 | -82.31781 | 11732 ft | 309 kts | 127° |
| 2026-05-05 01:31 | 26.80585 | -82.29794 | 11255 ft | 308 kts | 127° |
| 2026-05-05 01:32 | 26.79259 | -82.27950 | 10942 ft | 297 kts | 142° |
| 2026-05-05 01:32 | 26.77620 | -82.26584 | 10557 ft | 292 kts | 148° |
| 2026-05-05 01:32 | 26.75980 | -82.25322 | 10234 ft | 289 kts | 149° |
| 2026-05-05 01:32 | 26.74336 | -82.24060 | 9901 ft | 284 kts | 148° |
| 2026-05-05 01:33 | 26.72725 | -82.22814 | 9534 ft | 279 kts | 148° |
| 2026-05-05 01:33 | 26.71139 | -82.21581 | 9204 ft | 277 kts | 148° |
| 2026-05-05 01:33 | 26.69564 | -82.20349 | 8884 ft | 277 kts | 147° |
| 2026-05-05 01:33 | 26.67983 | -82.19109 | 8575 ft | 277 kts | 147° |
| 2026-05-05 01:34 | 26.66407 | -82.17870 | 8253 ft | 276 kts | 147° |
| 2026-05-05 01:34 | 26.64843 | -82.16636 | 7922 ft | 275 kts | 147° |
| 2026-05-05 01:34 | 26.63281 | -82.15407 | 7611 ft | 273 kts | 147° |
| 2026-05-05 01:34 | 26.61735 | -82.14189 | 7309 ft | 271 kts | 147° |
| 2026-05-05 01:35 | 26.60194 | -82.12975 | 6997 ft | 270 kts | 146° |
| 2026-05-05 01:35 | 26.58663 | -82.11769 | 6701 ft | 268 kts | 147° |
| 2026-05-05 01:35 | 26.57138 | -82.10568 | 6399 ft | 267 kts | 146° |
| 2026-05-05 01:35 | 26.55621 | -82.09373 | 6068 ft | 266 kts | 146° |
| 2026-05-05 01:36 | 26.54136 | -82.08204 | 5779 ft | 264 kts | 146° |
| 2026-05-05 01:36 | 26.52637 | -82.07025 | 5454 ft | 262 kts | 146° |
| 2026-05-05 01:36 | 26.51152 | -82.05854 | 5153 ft | 260 kts | 145° |
| 2026-05-05 01:36 | 26.49693 | -82.04669 | 4789 ft | 259 kts | 143° |
| 2026-05-05 01:37 | 26.48260 | -82.03470 | 4334 ft | 255 kts | 142° |
| 2026-05-05 01:37 | 26.46882 | -82.02257 | 3850 ft | 247 kts | 139° |
| 2026-05-05 01:37 | 26.45586 | -82.01040 | 3383 ft | 239 kts | 135° |
| 2026-05-05 01:37 | 26.44785 | -81.99621 | 3162 ft | 215 kts | 105° |
| 2026-05-05 01:38 | 26.44566 | -81.98059 | 3094 ft | 195 kts | 97° |
| 2026-05-05 01:38 | 26.44449 | -81.97089 | 2955 ft | 186 kts | 99° |
| 2026-05-05 01:38 | 26.44337 | -81.95693 | 2705 ft | 176 kts | 86° |
| 2026-05-05 01:38 | 26.44524 | -81.94373 | 2480 ft | 168 kts | 83° |
| 2026-05-05 01:39 | 26.44713 | -81.93085 | 2432 ft | 172 kts | 83° |
| 2026-05-05 01:39 | 26.44894 | -81.91762 | 2392 ft | 171 kts | 83° |
| 2026-05-05 01:39 | 26.45064 | -81.90475 | 2375 ft | 164 kts | 83° |
| 2026-05-05 01:39 | 26.45232 | -81.89257 | 2371 ft | 156 kts | 83° |
| 2026-05-05 01:40 | 26.45403 | -81.88084 | 2360 ft | 155 kts | 83° |
| 2026-05-05 01:40 | 26.45577 | -81.86926 | 2140 ft | 147 kts | 77° |
| 2026-05-05 01:40 | 26.46193 | -81.86047 | 2027 ft | 148 kts | 44° |
| 2026-05-05 01:40 | 26.46905 | -81.85216 | 1848 ft | 148 kts | 56° |
| 2026-05-05 01:41 | 26.47612 | -81.84392 | 1703 ft | 145 kts | 51° |
| 2026-05-05 01:41 | 26.48309 | -81.83572 | 1576 ft | 147 kts | 54° |
| 2026-05-05 01:41 | 26.48950 | -81.82691 | 1398 ft | 146 kts | 57° |
| 2026-05-05 01:41 | 26.49539 | -81.81776 | 1162 ft | 143 kts | 57° |
| 2026-05-05 01:42 | 26.50126 | -81.80867 | 998 ft | 144 kts | 56° |
| 2026-05-05 01:42 | 26.50725 | -81.79953 | 731 ft | 150 kts | 58° |
| 2026-05-05 01:42 | 26.51326 | -81.79021 | 545 ft | 146 kts | 55° |
| 2026-05-05 01:42 | 26.51921 | -81.78117 | 306 ft | 140 kts | 56° |
| 2026-05-05 01:43 | 26.52490 | -81.77241 | 134 ft | 142 kts | 56° |
| 2026-05-05 01:43 | 26.53070 | -81.76348 | 32 ft | 134 kts | 53° |
| 2026-05-05 01:43 | 26.53533 | -81.75644 | 38 ft | 85 kts | 53° |
| 2026-05-05 01:43 | 26.53760 | -81.75291 | 37 ft | 33 kts | 63° |
| 2026-05-05 01:44 | 26.53732 | -81.75149 | 36 ft | 14 kts | 206° |
| 2026-05-05 01:44 | 26.53656 | -81.75247 | 38 ft | 21 kts | 233° |
| 2026-05-05 01:44 | 26.53540 | -81.75348 | 37 ft | 21 kts | 158° |
| 2026-05-05 01:44 | 26.53420 | -81.75255 | 39 ft | 23 kts | 145° |
| 2026-05-05 01:45 | 26.53276 | -81.75140 | 40 ft | 28 kts | 144° |
| 2026-05-05 01:45 | 26.53116 | -81.75012 | 39 ft | 28 kts | 144° |
| 2026-05-05 01:45 | 26.53075 | -81.74991 | 40 ft | 2 kts | 233° |
| 2026-05-05 01:45 | 26.53097 | -81.75025 | 39 ft | 16 kts | 291° |
| 2026-05-05 01:46 | 26.53038 | -81.75138 | 41 ft | 18 kts | 210° |
| 2026-05-05 01:46 | 26.52928 | -81.75170 | 41 ft | 1 kts | 215° |